sensor_id;sensor_type;location;lat;lon;timestamp;P1;durP1;ratioP1;P2;durP2;ratioP2
19278;SDS011;9773;47.062;15.446;2022-09-09T00:04:05;3.83;;;1.30;;
19278;SDS011;9773;47.062;15.446;2022-09-09T00:06:45;1.17;;;1.10;;
19278;SDS011;9773;47.062;15.446;2022-09-09T00:09:31;1.90;;;1.20;;
19278;SDS011;9773;47.062;15.446;2022-09-09T00:12:12;4.03;;;1.10;;
19278;SDS011;9773;47.062;15.446;2022-09-09T00:15:02;1.93;;;1.30;;
19278;SDS011;9773;47.062;15.446;2022-09-09T00:17:46;1.30;;;1.20;;
19278;SDS011;9773;47.062;15.446;2022-09-09T00:23:03;3.37;;;1.20;;
19278;SDS011;9773;47.062;15.446;2022-09-09T00:25:42;3.30;;;1.00;;
19278;SDS011;9773;47.062;15.446;2022-09-09T00:28:18;5.83;;;1.23;;
19278;SDS011;9773;47.062;15.446;2022-09-09T00:30:45;1.97;;;1.07;;
19278;SDS011;9773;47.062;15.446;2022-09-09T00:33:15;1.87;;;1.67;;
19278;SDS011;9773;47.062;15.446;2022-09-09T00:35:49;1.20;;;1.20;;
19278;SDS011;9773;47.062;15.446;2022-09-09T00:40:52;3.43;;;1.33;;
19278;SDS011;9773;47.062;15.446;2022-09-09T00:43:35;3.70;;;1.17;;
19278;SDS011;9773;47.062;15.446;2022-09-09T00:57:13;1.47;;;1.30;;
19278;SDS011;9773;47.062;15.446;2022-09-09T00:59:52;1.43;;;1.33;;
19278;SDS011;9773;47.062;15.446;2022-09-09T01:05:30;2.97;;;1.43;;
19278;SDS011;9773;47.062;15.446;2022-09-09T01:11:05;2.20;;;2.00;;
19278;SDS011;9773;47.062;15.446;2022-09-09T01:13:41;2.10;;;2.00;;
19278;SDS011;9773;47.062;15.446;2022-09-09T01:16:08;2.37;;;1.90;;
19278;SDS011;9773;47.062;15.446;2022-09-09T01:18:40;3.23;;;2.00;;
19278;SDS011;9773;47.062;15.446;2022-09-09T01:26:44;3.17;;;2.03;;
19278;SDS011;9773;47.062;15.446;2022-09-09T01:29:12;3.70;;;2.20;;
19278;SDS011;9773;47.062;15.446;2022-09-09T01:34:18;3.30;;;2.20;;
19278;SDS011;9773;47.062;15.446;2022-09-09T01:36:45;2.47;;;2.17;;
19278;SDS011;9773;47.062;15.446;2022-09-09T01:39:17;2.33;;;2.13;;
19278;SDS011;9773;47.062;15.446;2022-09-09T01:41:44;2.33;;;2.10;;
19278;SDS011;9773;47.062;15.446;2022-09-09T01:44:10;2.57;;;2.37;;
19278;SDS011;9773;47.062;15.446;2022-09-09T01:46:37;2.77;;;2.20;;
19278;SDS011;9773;47.062;15.446;2022-09-09T01:49:03;2.50;;;2.23;;
19278;SDS011;9773;47.062;15.446;2022-09-09T01:51:32;1.90;;;1.90;;
19278;SDS011;9773;47.062;15.446;2022-09-09T01:53:58;3.10;;;1.90;;
19278;SDS011;9773;47.062;15.446;2022-09-09T02:02:07;2.97;;;2.23;;
19278;SDS011;9773;47.062;15.446;2022-09-09T02:10:21;3.13;;;2.40;;
19278;SDS011;9773;47.062;15.446;2022-09-09T02:12:54;2.50;;;2.30;;
19278;SDS011;9773;47.062;15.446;2022-09-09T02:15:30;2.33;;;2.10;;
19278;SDS011;9773;47.062;15.446;2022-09-09T02:18:06;2.53;;;2.30;;
19278;SDS011;9773;47.062;15.446;2022-09-09T02:20:36;2.20;;;2.10;;
19278;SDS011;9773;47.062;15.446;2022-09-09T02:23:04;2.33;;;2.23;;
19278;SDS011;9773;47.062;15.446;2022-09-09T02:25:33;2.30;;;2.20;;
19278;SDS011;9773;47.062;15.446;2022-09-09T02:28:02;4.37;;;2.20;;
19278;SDS011;9773;47.062;15.446;2022-09-09T02:30:32;2.30;;;2.20;;
19278;SDS011;9773;47.062;15.446;2022-09-09T02:33:00;2.40;;;2.20;;
19278;SDS011;9773;47.062;15.446;2022-09-09T02:35:28;2.67;;;2.10;;
19278;SDS011;9773;47.062;15.446;2022-09-09T02:37:56;3.37;;;2.37;;
19278;SDS011;9773;47.062;15.446;2022-09-09T02:40:26;2.40;;;2.20;;
19278;SDS011;9773;47.062;15.446;2022-09-09T02:42:53;2.43;;;2.33;;
19278;SDS011;9773;47.062;15.446;2022-09-09T02:45:20;4.40;;;2.13;;
19278;SDS011;9773;47.062;15.446;2022-09-09T02:47:52;2.83;;;2.20;;
19278;SDS011;9773;47.062;15.446;2022-09-09T02:58:09;2.33;;;2.23;;
19278;SDS011;9773;47.062;15.446;2022-09-09T03:00:38;2.43;;;2.27;;
19278;SDS011;9773;47.062;15.446;2022-09-09T03:03:05;2.57;;;2.00;;
19278;SDS011;9773;47.062;15.446;2022-09-09T03:05:33;3.03;;;2.20;;
19278;SDS011;9773;47.062;15.446;2022-09-09T03:08:00;3.20;;;2.47;;
19278;SDS011;9773;47.062;15.446;2022-09-09T03:10:27;2.37;;;2.17;;
19278;SDS011;9773;47.062;15.446;2022-09-09T03:12:53;4.23;;;2.27;;
19278;SDS011;9773;47.062;15.446;2022-09-09T03:15:20;2.77;;;2.13;;
19278;SDS011;9773;47.062;15.446;2022-09-09T03:17:46;3.00;;;2.40;;
19278;SDS011;9773;47.062;15.446;2022-09-09T03:20:12;2.60;;;2.40;;
19278;SDS011;9773;47.062;15.446;2022-09-09T03:22:38;2.20;;;2.10;;
19278;SDS011;9773;47.062;15.446;2022-09-09T03:25:04;2.33;;;2.10;;
19278;SDS011;9773;47.062;15.446;2022-09-09T03:27:30;3.67;;;2.00;;
19278;SDS011;9773;47.062;15.446;2022-09-09T03:29:56;1.90;;;1.70;;
19278;SDS011;9773;47.062;15.446;2022-09-09T03:32:22;5.50;;;1.47;;
19278;SDS011;9773;47.062;15.446;2022-09-09T03:34:50;1.70;;;1.60;;
19278;SDS011;9773;47.062;15.446;2022-09-09T03:37:17;3.63;;;1.70;;
19278;SDS011;9773;47.062;15.446;2022-09-09T03:39:43;2.20;;;1.80;;
19278;SDS011;9773;47.062;15.446;2022-09-09T03:42:09;2.47;;;2.27;;
19278;SDS011;9773;47.062;15.446;2022-09-09T03:44:37;2.50;;;2.33;;
19278;SDS011;9773;47.062;15.446;2022-09-09T03:47:03;2.10;;;2.00;;
19278;SDS011;9773;47.062;15.446;2022-09-09T03:49:28;2.33;;;2.23;;
19278;SDS011;9773;47.062;15.446;2022-09-09T03:51:55;2.70;;;2.30;;
19278;SDS011;9773;47.062;15.446;2022-09-09T03:54:22;2.50;;;2.20;;
19278;SDS011;9773;47.062;15.446;2022-09-09T03:56:49;3.93;;;2.20;;
19278;SDS011;9773;47.062;15.446;2022-09-09T03:59:15;3.03;;;2.30;;
19278;SDS011;9773;47.062;15.446;2022-09-09T04:01:41;2.53;;;2.33;;
19278;SDS011;9773;47.062;15.446;2022-09-09T04:04:06;2.70;;;2.50;;
19278;SDS011;9773;47.062;15.446;2022-09-09T04:06:32;2.70;;;2.50;;
19278;SDS011;9773;47.062;15.446;2022-09-09T04:08:59;2.30;;;2.20;;
19278;SDS011;9773;47.062;15.446;2022-09-09T04:11:27;2.40;;;2.27;;
19278;SDS011;9773;47.062;15.446;2022-09-09T04:13:52;2.87;;;2.67;;
19278;SDS011;9773;47.062;15.446;2022-09-09T04:16:18;3.00;;;2.80;;
19278;SDS011;9773;47.062;15.446;2022-09-09T04:18:45;5.20;;;2.87;;
19278;SDS011;9773;47.062;15.446;2022-09-09T04:21:10;2.80;;;2.67;;
19278;SDS011;9773;47.062;15.446;2022-09-09T04:23:37;4.27;;;2.80;;
19278;SDS011;9773;47.062;15.446;2022-09-09T04:26:04;2.70;;;2.50;;
19278;SDS011;9773;47.062;15.446;2022-09-09T04:28:32;2.90;;;2.70;;
19278;SDS011;9773;47.062;15.446;2022-09-09T04:31:09;3.30;;;2.97;;
19278;SDS011;9773;47.062;15.446;2022-09-09T04:33:39;4.13;;;2.80;;
19278;SDS011;9773;47.062;15.446;2022-09-09T04:36:05;2.33;;;2.23;;
19278;SDS011;9773;47.062;15.446;2022-09-09T04:38:32;2.77;;;2.50;;
19278;SDS011;9773;47.062;15.446;2022-09-09T04:40:57;2.83;;;2.63;;
19278;SDS011;9773;47.062;15.446;2022-09-09T04:43:23;3.07;;;2.87;;
19278;SDS011;9773;47.062;15.446;2022-09-09T04:45:51;2.63;;;2.50;;
19278;SDS011;9773;47.062;15.446;2022-09-09T04:48:17;2.70;;;2.60;;
19278;SDS011;9773;47.062;15.446;2022-09-09T04:50:43;3.93;;;2.60;;
19278;SDS011;9773;47.062;15.446;2022-09-09T04:53:09;2.83;;;2.23;;
19278;SDS011;9773;47.062;15.446;2022-09-09T04:55:34;2.77;;;2.67;;
19278;SDS011;9773;47.062;15.446;2022-09-09T04:58:07;2.80;;;2.57;;
19278;SDS011;9773;47.062;15.446;2022-09-09T05:00:34;2.77;;;2.57;;
19278;SDS011;9773;47.062;15.446;2022-09-09T05:03:04;3.53;;;2.80;;
19278;SDS011;9773;47.062;15.446;2022-09-09T05:05:30;3.00;;;2.70;;
19278;SDS011;9773;47.062;15.446;2022-09-09T05:08:02;4.90;;;2.73;;
19278;SDS011;9773;47.062;15.446;2022-09-09T05:10:29;2.90;;;2.80;;
19278;SDS011;9773;47.062;15.446;2022-09-09T05:12:55;2.77;;;2.60;;
19278;SDS011;9773;47.062;15.446;2022-09-09T05:15:21;4.67;;;2.87;;
19278;SDS011;9773;47.062;15.446;2022-09-09T05:17:47;7.80;;;2.70;;
19278;SDS011;9773;47.062;15.446;2022-09-09T05:20:13;2.70;;;2.50;;
19278;SDS011;9773;47.062;15.446;2022-09-09T05:22:38;2.70;;;2.50;;
19278;SDS011;9773;47.062;15.446;2022-09-09T05:25:05;2.53;;;2.40;;
19278;SDS011;9773;47.062;15.446;2022-09-09T05:27:33;3.50;;;3.20;;
19278;SDS011;9773;47.062;15.446;2022-09-09T05:29:59;2.97;;;2.47;;
19278;SDS011;9773;47.062;15.446;2022-09-09T05:32:25;3.10;;;2.90;;
19278;SDS011;9773;47.062;15.446;2022-09-09T05:34:51;3.60;;;2.60;;
19278;SDS011;9773;47.062;15.446;2022-09-09T05:37:17;2.70;;;2.60;;
19278;SDS011;9773;47.062;15.446;2022-09-09T05:39:43;2.60;;;2.50;;
19278;SDS011;9773;47.062;15.446;2022-09-09T05:42:09;2.87;;;2.60;;
19278;SDS011;9773;47.062;15.446;2022-09-09T05:44:35;2.70;;;2.50;;
19278;SDS011;9773;47.062;15.446;2022-09-09T05:47:02;2.60;;;2.47;;
19278;SDS011;9773;47.062;15.446;2022-09-09T05:49:28;4.73;;;2.70;;
19278;SDS011;9773;47.062;15.446;2022-09-09T05:51:53;2.77;;;2.50;;
19278;SDS011;9773;47.062;15.446;2022-09-09T05:54:19;3.33;;;3.07;;
19278;SDS011;9773;47.062;15.446;2022-09-09T05:56:45;3.93;;;2.67;;
19278;SDS011;9773;47.062;15.446;2022-09-09T05:59:11;4.20;;;2.47;;
19278;SDS011;9773;47.062;15.446;2022-09-09T06:01:37;4.33;;;2.77;;
19278;SDS011;9773;47.062;15.446;2022-09-09T06:04:05;2.77;;;2.47;;
19278;SDS011;9773;47.062;15.446;2022-09-09T06:06:33;3.67;;;2.57;;
19278;SDS011;9773;47.062;15.446;2022-09-09T06:09:02;2.40;;;2.30;;
19278;SDS011;9773;47.062;15.446;2022-09-09T06:11:31;2.43;;;2.23;;
19278;SDS011;9773;47.062;15.446;2022-09-09T06:13:58;2.90;;;2.30;;
19278;SDS011;9773;47.062;15.446;2022-09-09T06:16:24;2.60;;;2.40;;
19278;SDS011;9773;47.062;15.446;2022-09-09T06:18:52;4.43;;;2.63;;
19278;SDS011;9773;47.062;15.446;2022-09-09T06:21:21;2.50;;;2.40;;
19278;SDS011;9773;47.062;15.446;2022-09-09T06:23:50;2.33;;;2.20;;
19278;SDS011;9773;47.062;15.446;2022-09-09T06:26:28;4.97;;;2.27;;
19278;SDS011;9773;47.062;15.446;2022-09-09T06:28:55;2.83;;;2.63;;
19278;SDS011;9773;47.062;15.446;2022-09-09T06:31:23;3.00;;;2.80;;
19278;SDS011;9773;47.062;15.446;2022-09-09T06:33:51;3.10;;;2.57;;
19278;SDS011;9773;47.062;15.446;2022-09-09T06:36:20;3.57;;;2.50;;
19278;SDS011;9773;47.062;15.446;2022-09-09T06:38:50;2.97;;;2.77;;
19278;SDS011;9773;47.062;15.446;2022-09-09T06:41:17;2.50;;;2.40;;
19278;SDS011;9773;47.062;15.446;2022-09-09T06:43:45;2.93;;;2.27;;
19278;SDS011;9773;47.062;15.446;2022-09-09T06:48:38;2.93;;;2.20;;
19278;SDS011;9773;47.062;15.446;2022-09-09T06:53:37;2.70;;;2.50;;
19278;SDS011;9773;47.062;15.446;2022-09-09T06:58:41;2.63;;;2.13;;
19278;SDS011;9773;47.062;15.446;2022-09-09T07:01:09;3.17;;;2.30;;
19278;SDS011;9773;47.062;15.446;2022-09-09T07:03:40;2.60;;;2.40;;
19278;SDS011;9773;47.062;15.446;2022-09-09T07:06:13;2.43;;;2.23;;
19278;SDS011;9773;47.062;15.446;2022-09-09T07:08:42;2.77;;;2.57;;
19278;SDS011;9773;47.062;15.446;2022-09-09T07:11:08;3.13;;;2.03;;
19278;SDS011;9773;47.062;15.446;2022-09-09T07:13:34;8.43;;;2.50;;
19278;SDS011;9773;47.062;15.446;2022-09-09T07:16:04;2.43;;;2.33;;
19278;SDS011;9773;47.062;15.446;2022-09-09T07:18:31;6.80;;;2.83;;
19278;SDS011;9773;47.062;15.446;2022-09-09T07:20:57;3.87;;;2.70;;
19278;SDS011;9773;47.062;15.446;2022-09-09T07:23:23;4.97;;;2.77;;
19278;SDS011;9773;47.062;15.446;2022-09-09T07:25:49;3.47;;;2.70;;
19278;SDS011;9773;47.062;15.446;2022-09-09T07:28:15;4.00;;;3.10;;
19278;SDS011;9773;47.062;15.446;2022-09-09T07:30:42;3.90;;;2.60;;
19278;SDS011;9773;47.062;15.446;2022-09-09T07:33:08;9.77;;;3.07;;
19278;SDS011;9773;47.062;15.446;2022-09-09T07:35:35;7.27;;;3.30;;
19278;SDS011;9773;47.062;15.446;2022-09-09T07:38:07;5.80;;;3.43;;
19278;SDS011;9773;47.062;15.446;2022-09-09T07:40:33;6.53;;;3.40;;
19278;SDS011;9773;47.062;15.446;2022-09-09T07:43:02;8.10;;;3.30;;
19278;SDS011;9773;47.062;15.446;2022-09-09T07:45:28;3.90;;;2.93;;
19278;SDS011;9773;47.062;15.446;2022-09-09T07:47:55;7.80;;;3.57;;
19278;SDS011;9773;47.062;15.446;2022-09-09T07:50:22;5.50;;;3.70;;
19278;SDS011;9773;47.062;15.446;2022-09-09T07:52:48;8.40;;;3.33;;
19278;SDS011;9773;47.062;15.446;2022-09-09T07:55:20;8.20;;;3.37;;
19278;SDS011;9773;47.062;15.446;2022-09-09T07:57:47;6.10;;;3.60;;
19278;SDS011;9773;47.062;15.446;2022-09-09T08:00:13;7.37;;;3.50;;
19278;SDS011;9773;47.062;15.446;2022-09-09T08:02:40;9.93;;;3.37;;
19278;SDS011;9773;47.062;15.446;2022-09-09T08:05:06;7.70;;;3.30;;
19278;SDS011;9773;47.062;15.446;2022-09-09T08:07:35;6.43;;;3.63;;
19278;SDS011;9773;47.062;15.446;2022-09-09T08:10:01;5.07;;;3.67;;
19278;SDS011;9773;47.062;15.446;2022-09-09T08:12:28;5.23;;;2.70;;
19278;SDS011;9773;47.062;15.446;2022-09-09T08:14:54;2.77;;;2.57;;
19278;SDS011;9773;47.062;15.446;2022-09-09T08:17:19;3.77;;;2.30;;
19278;SDS011;9773;47.062;15.446;2022-09-09T08:19:45;2.50;;;2.33;;
19278;SDS011;9773;47.062;15.446;2022-09-09T08:22:11;2.10;;;2.00;;
19278;SDS011;9773;47.062;15.446;2022-09-09T08:24:36;3.53;;;2.20;;
19278;SDS011;9773;47.062;15.446;2022-09-09T08:27:02;2.57;;;2.33;;
19278;SDS011;9773;47.062;15.446;2022-09-09T08:29:28;2.50;;;2.17;;
19278;SDS011;9773;47.062;15.446;2022-09-09T08:31:55;2.50;;;2.30;;
19278;SDS011;9773;47.062;15.446;2022-09-09T08:34:22;2.83;;;2.10;;
19278;SDS011;9773;47.062;15.446;2022-09-09T08:36:50;2.30;;;2.20;;
19278;SDS011;9773;47.062;15.446;2022-09-09T08:39:18;2.57;;;2.20;;
19278;SDS011;9773;47.062;15.446;2022-09-09T08:52:56;2.47;;;2.30;;
19278;SDS011;9773;47.062;15.446;2022-09-09T08:57:57;2.23;;;2.13;;
19278;SDS011;9773;47.062;15.446;2022-09-09T09:03:19;4.53;;;2.47;;
19278;SDS011;9773;47.062;15.446;2022-09-09T09:11:59;5.20;;;2.90;;
19278;SDS011;9773;47.062;15.446;2022-09-09T09:14:30;4.80;;;2.90;;
19278;SDS011;9773;47.062;15.446;2022-09-09T09:19:34;3.93;;;2.87;;
19278;SDS011;9773;47.062;15.446;2022-09-09T09:27:44;3.93;;;2.13;;
19278;SDS011;9773;47.062;15.446;2022-09-09T09:30:23;2.53;;;2.43;;
19278;SDS011;9773;47.062;15.446;2022-09-09T09:32:58;4.47;;;2.60;;
19278;SDS011;9773;47.062;15.446;2022-09-09T09:35:25;5.43;;;3.03;;
19278;SDS011;9773;47.062;15.446;2022-09-09T09:37:54;5.47;;;2.57;;
19278;SDS011;9773;47.062;15.446;2022-09-09T09:40:20;3.33;;;2.70;;
19278;SDS011;9773;47.062;15.446;2022-09-09T09:43:00;5.10;;;2.73;;
19278;SDS011;9773;47.062;15.446;2022-09-09T09:45:28;6.23;;;2.87;;
19278;SDS011;9773;47.062;15.446;2022-09-09T09:47:59;2.97;;;2.40;;
19278;SDS011;9773;47.062;15.446;2022-09-09T09:50:31;3.30;;;3.00;;
19278;SDS011;9773;47.062;15.446;2022-09-09T09:53:17;5.40;;;2.80;;
19278;SDS011;9773;47.062;15.446;2022-09-09T09:55:56;3.50;;;2.40;;
19278;SDS011;9773;47.062;15.446;2022-09-09T09:58:27;2.50;;;2.23;;
19278;SDS011;9773;47.062;15.446;2022-09-09T10:00:57;2.27;;;1.70;;
19278;SDS011;9773;47.062;15.446;2022-09-09T10:03:31;2.80;;;2.27;;
19278;SDS011;9773;47.062;15.446;2022-09-09T10:06:04;3.00;;;1.97;;
19278;SDS011;9773;47.062;15.446;2022-09-09T10:08:34;2.03;;;1.80;;
19278;SDS011;9773;47.062;15.446;2022-09-09T10:11:20;1.83;;;1.73;;
19278;SDS011;9773;47.062;15.446;2022-09-09T10:14:05;2.03;;;1.93;;
19278;SDS011;9773;47.062;15.446;2022-09-09T10:19:25;1.53;;;1.53;;
19278;SDS011;9773;47.062;15.446;2022-09-09T10:22:02;2.83;;;1.90;;
19278;SDS011;9773;47.062;15.446;2022-09-09T10:35:35;2.10;;;2.00;;
19278;SDS011;9773;47.062;15.446;2022-09-09T10:38:25;3.70;;;2.07;;
19278;SDS011;9773;47.062;15.446;2022-09-09T10:41:16;2.40;;;2.00;;
19278;SDS011;9773;47.062;15.446;2022-09-09T10:44:30;1.77;;;1.67;;
19278;SDS011;9773;47.062;15.446;2022-09-09T10:52:11;2.10;;;2.00;;
19278;SDS011;9773;47.062;15.446;2022-09-09T10:55:12;3.40;;;2.38;;
19278;SDS011;9773;47.062;15.446;2022-09-09T10:57:44;1.93;;;1.80;;
19278;SDS011;9773;47.062;15.446;2022-09-09T11:00:23;3.20;;;2.10;;
19278;SDS011;9773;47.062;15.446;2022-09-09T11:03:04;2.13;;;1.90;;
19278;SDS011;9773;47.062;15.446;2022-09-09T11:08:34;1.80;;;1.70;;
19278;SDS011;9773;47.062;15.446;2022-09-09T11:11:04;1.77;;;1.60;;
19278;SDS011;9773;47.062;15.446;2022-09-09T11:16:20;3.50;;;2.03;;
19278;SDS011;9773;47.062;15.446;2022-09-09T11:18:48;1.83;;;1.50;;
19278;SDS011;9773;47.062;15.446;2022-09-09T11:21:19;1.70;;;1.60;;
19278;SDS011;9773;47.062;15.446;2022-09-09T11:23:52;1.50;;;1.33;;
19278;SDS011;9773;47.062;15.446;2022-09-09T11:26:35;5.22;;;1.30;;
19278;SDS011;9773;47.062;15.446;2022-09-09T11:42:44;3.07;;;1.70;;
19278;SDS011;9773;47.062;15.446;2022-09-09T11:45:31;4.28;;;1.60;;
19278;SDS011;9773;47.062;15.446;2022-09-09T11:48:00;2.80;;;1.60;;
19278;SDS011;9773;47.062;15.446;2022-09-09T11:50:33;1.60;;;1.60;;
19278;SDS011;9773;47.062;15.446;2022-09-09T11:56:01;2.83;;;1.70;;
19278;SDS011;9773;47.062;15.446;2022-09-09T11:58:39;2.23;;;2.13;;
19278;SDS011;9773;47.062;15.446;2022-09-09T12:01:28;3.70;;;1.83;;
19278;SDS011;9773;47.062;15.446;2022-09-09T12:04:10;2.00;;;1.90;;
19278;SDS011;9773;47.062;15.446;2022-09-09T12:06:59;1.80;;;1.80;;
19278;SDS011;9773;47.062;15.446;2022-09-09T12:14:38;2.20;;;2.00;;
19278;SDS011;9773;47.062;15.446;2022-09-09T12:19:47;1.77;;;1.67;;
19278;SDS011;9773;47.062;15.446;2022-09-09T12:27:33;1.63;;;1.53;;
19278;SDS011;9773;47.062;15.446;2022-09-09T12:30:09;1.80;;;1.70;;
19278;SDS011;9773;47.062;15.446;2022-09-09T12:32:37;2.93;;;1.40;;
19278;SDS011;9773;47.062;15.446;2022-09-09T12:35:11;1.17;;;1.17;;
19278;SDS011;9773;47.062;15.446;2022-09-09T12:37:52;1.50;;;1.40;;
19278;SDS011;9773;47.062;15.446;2022-09-09T12:40:25;1.70;;;1.63;;
19278;SDS011;9773;47.062;15.446;2022-09-09T12:42:52;1.13;;;1.10;;
19278;SDS011;9773;47.062;15.446;2022-09-09T12:45:23;1.20;;;1.20;;
19278;SDS011;9773;47.062;15.446;2022-09-09T12:50:23;1.67;;;1.42;;
19278;SDS011;9773;47.062;15.446;2022-09-09T12:52:51;1.40;;;1.30;;
19278;SDS011;9773;47.062;15.446;2022-09-09T12:55:28;1.30;;;1.23;;
19278;SDS011;9773;47.062;15.446;2022-09-09T12:57:56;1.47;;;1.10;;
19278;SDS011;9773;47.062;15.446;2022-09-09T13:00:24;1.30;;;1.30;;
19278;SDS011;9773;47.062;15.446;2022-09-09T13:02:58;1.50;;;1.37;;
19278;SDS011;9773;47.062;15.446;2022-09-09T13:05:41;1.67;;;1.47;;
19278;SDS011;9773;47.062;15.446;2022-09-09T13:08:13;2.10;;;1.50;;
19278;SDS011;9773;47.062;15.446;2022-09-09T13:10:57;1.40;;;1.40;;
19278;SDS011;9773;47.062;15.446;2022-09-09T13:13:38;2.10;;;1.60;;
19278;SDS011;9773;47.062;15.446;2022-09-09T13:16:07;1.53;;;1.43;;
19278;SDS011;9773;47.062;15.446;2022-09-09T13:18:48;2.47;;;1.73;;
19278;SDS011;9773;47.062;15.446;2022-09-09T13:21:14;1.93;;;1.73;;
19278;SDS011;9773;47.062;15.446;2022-09-09T13:23:40;1.70;;;1.60;;
19278;SDS011;9773;47.062;15.446;2022-09-09T13:26:25;2.17;;;1.63;;
19278;SDS011;9773;47.062;15.446;2022-09-09T13:28:55;2.90;;;1.90;;
19278;SDS011;9773;47.062;15.446;2022-09-09T13:31:43;2.27;;;1.50;;
19278;SDS011;9773;47.062;15.446;2022-09-09T13:39:59;2.83;;;1.57;;
19278;SDS011;9773;47.062;15.446;2022-09-09T13:42:28;2.27;;;1.70;;
19278;SDS011;9773;47.062;15.446;2022-09-09T13:44:56;2.53;;;1.73;;
19278;SDS011;9773;47.062;15.446;2022-09-09T13:47:34;1.37;;;1.30;;
19278;SDS011;9773;47.062;15.446;2022-09-09T13:52:49;1.70;;;1.60;;
19278;SDS011;9773;47.062;15.446;2022-09-09T13:55:19;2.10;;;1.87;;
19278;SDS011;9773;47.062;15.446;2022-09-09T13:57:50;1.60;;;1.50;;
19278;SDS011;9773;47.062;15.446;2022-09-09T14:00:26;2.40;;;2.10;;
19278;SDS011;9773;47.062;15.446;2022-09-09T14:02:54;2.60;;;1.77;;
19278;SDS011;9773;47.062;15.446;2022-09-09T14:05:20;1.80;;;1.50;;
19278;SDS011;9773;47.062;15.446;2022-09-09T14:07:47;1.87;;;1.83;;
19278;SDS011;9773;47.062;15.446;2022-09-09T14:10:14;3.13;;;1.77;;
19278;SDS011;9773;47.062;15.446;2022-09-09T14:12:40;1.83;;;1.73;;
19278;SDS011;9773;47.062;15.446;2022-09-09T14:15:06;1.93;;;1.83;;
19278;SDS011;9773;47.062;15.446;2022-09-09T14:17:34;1.90;;;1.50;;
19278;SDS011;9773;47.062;15.446;2022-09-09T14:20:02;3.43;;;2.00;;
19278;SDS011;9773;47.062;15.446;2022-09-09T14:22:30;3.77;;;2.10;;
19278;SDS011;9773;47.062;15.446;2022-09-09T14:24:56;2.60;;;1.80;;
19278;SDS011;9773;47.062;15.446;2022-09-09T14:27:22;4.83;;;2.27;;
19278;SDS011;9773;47.062;15.446;2022-09-09T14:29:48;5.30;;;2.40;;
19278;SDS011;9773;47.062;15.446;2022-09-09T14:32:14;2.67;;;2.10;;
19278;SDS011;9773;47.062;15.446;2022-09-09T14:34:41;2.50;;;2.30;;
19278;SDS011;9773;47.062;15.446;2022-09-09T14:37:06;3.67;;;2.63;;
19278;SDS011;9773;47.062;15.446;2022-09-09T14:39:32;3.13;;;2.00;;
19278;SDS011;9773;47.062;15.446;2022-09-09T14:41:58;3.43;;;2.10;;
19278;SDS011;9773;47.062;15.446;2022-09-09T14:44:24;3.63;;;2.93;;
19278;SDS011;9773;47.062;15.446;2022-09-09T14:46:50;2.60;;;1.90;;
19278;SDS011;9773;47.062;15.446;2022-09-09T14:49:15;2.67;;;2.03;;
19278;SDS011;9773;47.062;15.446;2022-09-09T14:51:41;2.20;;;2.10;;
19278;SDS011;9773;47.062;15.446;2022-09-09T14:54:07;2.57;;;2.37;;
19278;SDS011;9773;47.062;15.446;2022-09-09T14:56:33;2.23;;;2.10;;
19278;SDS011;9773;47.062;15.446;2022-09-09T14:58:59;2.87;;;2.23;;
19278;SDS011;9773;47.062;15.446;2022-09-09T15:01:27;2.47;;;2.30;;
19278;SDS011;9773;47.062;15.446;2022-09-09T15:04:00;2.63;;;1.77;;
19278;SDS011;9773;47.062;15.446;2022-09-09T15:06:31;2.13;;;2.00;;
19278;SDS011;9773;47.062;15.446;2022-09-09T15:08:58;4.63;;;1.97;;
19278;SDS011;9773;47.062;15.446;2022-09-09T15:11:29;2.70;;;1.90;;
19278;SDS011;9773;47.062;15.446;2022-09-09T15:13:57;2.47;;;2.00;;
19278;SDS011;9773;47.062;15.446;2022-09-09T15:16:24;2.23;;;2.13;;
19278;SDS011;9773;47.062;15.446;2022-09-09T15:18:52;2.17;;;2.07;;
19278;SDS011;9773;47.062;15.446;2022-09-09T15:21:20;2.23;;;2.00;;
19278;SDS011;9773;47.062;15.446;2022-09-09T15:23:48;3.80;;;2.37;;
19278;SDS011;9773;47.062;15.446;2022-09-09T15:26:14;2.40;;;2.30;;
19278;SDS011;9773;47.062;15.446;2022-09-09T15:28:41;2.77;;;2.57;;
19278;SDS011;9773;47.062;15.446;2022-09-09T15:31:15;2.83;;;2.40;;
19278;SDS011;9773;47.062;15.446;2022-09-09T15:33:49;4.23;;;2.30;;
19278;SDS011;9773;47.062;15.446;2022-09-09T15:36:18;2.67;;;2.43;;
19278;SDS011;9773;47.062;15.446;2022-09-09T15:38:49;2.20;;;2.10;;
19278;SDS011;9773;47.062;15.446;2022-09-09T15:41:16;2.30;;;2.10;;
19278;SDS011;9773;47.062;15.446;2022-09-09T15:43:46;3.10;;;2.47;;
19278;SDS011;9773;47.062;15.446;2022-09-09T15:48:56;2.87;;;2.30;;
19278;SDS011;9773;47.062;15.446;2022-09-09T15:51:28;4.97;;;2.27;;
19278;SDS011;9773;47.062;15.446;2022-09-09T15:53:55;2.53;;;2.33;;
19278;SDS011;9773;47.062;15.446;2022-09-09T15:56:22;2.47;;;2.37;;
19278;SDS011;9773;47.062;15.446;2022-09-09T15:58:48;2.93;;;2.63;;
19278;SDS011;9773;47.062;15.446;2022-09-09T16:01:13;2.77;;;2.57;;
19278;SDS011;9773;47.062;15.446;2022-09-09T16:03:41;5.60;;;2.63;;
19278;SDS011;9773;47.062;15.446;2022-09-09T16:06:08;2.60;;;2.40;;
19278;SDS011;9773;47.062;15.446;2022-09-09T16:08:40;2.67;;;2.33;;
19278;SDS011;9773;47.062;15.446;2022-09-09T16:11:14;2.43;;;2.23;;
19278;SDS011;9773;47.062;15.446;2022-09-09T16:13:42;4.73;;;2.10;;
19278;SDS011;9773;47.062;15.446;2022-09-09T16:16:12;3.47;;;2.50;;
19278;SDS011;9773;47.062;15.446;2022-09-09T16:18:40;3.20;;;2.50;;
19278;SDS011;9773;47.062;15.446;2022-09-09T16:21:08;3.80;;;2.50;;
19278;SDS011;9773;47.062;15.446;2022-09-09T16:23:38;5.77;;;2.40;;
19278;SDS011;9773;47.062;15.446;2022-09-09T16:26:04;2.70;;;2.50;;
19278;SDS011;9773;47.062;15.446;2022-09-09T16:28:30;2.70;;;2.20;;
19278;SDS011;9773;47.062;15.446;2022-09-09T16:30:56;2.77;;;2.67;;
19278;SDS011;9773;47.062;15.446;2022-09-09T16:33:23;4.30;;;2.93;;
19278;SDS011;9773;47.062;15.446;2022-09-09T16:35:50;2.90;;;2.70;;
19278;SDS011;9773;47.062;15.446;2022-09-09T16:38:16;2.70;;;2.50;;
19278;SDS011;9773;47.062;15.446;2022-09-09T16:40:42;2.60;;;2.40;;
19278;SDS011;9773;47.062;15.446;2022-09-09T16:43:08;4.50;;;2.80;;
19278;SDS011;9773;47.062;15.446;2022-09-09T16:45:41;5.73;;;2.90;;
19278;SDS011;9773;47.062;15.446;2022-09-09T16:48:08;2.60;;;2.30;;
19278;SDS011;9773;47.062;15.446;2022-09-09T16:50:35;2.70;;;2.47;;
19278;SDS011;9773;47.062;15.446;2022-09-09T16:53:03;7.30;;;2.50;;
19278;SDS011;9773;47.062;15.446;2022-09-09T16:55:31;2.90;;;2.70;;
19278;SDS011;9773;47.062;15.446;2022-09-09T16:57:57;6.13;;;4.70;;
19278;SDS011;9773;47.062;15.446;2022-09-09T17:00:23;3.30;;;2.70;;
19278;SDS011;9773;47.062;15.446;2022-09-09T17:02:49;4.50;;;2.60;;
19278;SDS011;9773;47.062;15.446;2022-09-09T17:05:14;3.10;;;2.50;;
19278;SDS011;9773;47.062;15.446;2022-09-09T17:07:40;3.03;;;2.60;;
19278;SDS011;9773;47.062;15.446;2022-09-09T17:10:06;3.07;;;2.40;;
19278;SDS011;9773;47.062;15.446;2022-09-09T17:12:32;2.80;;;2.70;;
19278;SDS011;9773;47.062;15.446;2022-09-09T17:15:00;3.13;;;2.57;;
19278;SDS011;9773;47.062;15.446;2022-09-09T17:17:28;3.50;;;2.80;;
19278;SDS011;9773;47.062;15.446;2022-09-09T17:19:53;3.27;;;3.00;;
19278;SDS011;9773;47.062;15.446;2022-09-09T17:22:19;6.07;;;2.57;;
19278;SDS011;9773;47.062;15.446;2022-09-09T17:24:46;2.80;;;2.60;;
19278;SDS011;9773;47.062;15.446;2022-09-09T17:27:12;2.90;;;2.53;;
19278;SDS011;9773;47.062;15.446;2022-09-09T17:29:38;2.87;;;2.50;;
19278;SDS011;9773;47.062;15.446;2022-09-09T17:32:04;4.20;;;3.00;;
19278;SDS011;9773;47.062;15.446;2022-09-09T17:34:35;3.90;;;2.50;;
19278;SDS011;9773;47.062;15.446;2022-09-09T17:37:01;3.03;;;2.80;;
19278;SDS011;9773;47.062;15.446;2022-09-09T17:39:27;3.40;;;3.20;;
19278;SDS011;9773;47.062;15.446;2022-09-09T17:41:53;2.77;;;2.57;;